sensor_id;sensor_type;location;lat;lon;timestamp;P1;durP1;ratioP1;P2;durP2;ratioP2
1106;SDS011;540;49.448;8.612;2022-09-03T00:00:00;3.35;;;0.80;;
1106;SDS011;540;49.448;8.612;2022-09-03T00:02:35;2.47;;;1.08;;
1106;SDS011;540;49.448;8.612;2022-09-03T00:05:07;2.92;;;0.98;;
1106;SDS011;540;49.448;8.612;2022-09-03T00:07:42;1.05;;;0.77;;
1106;SDS011;540;49.448;8.612;2022-09-03T00:10:18;2.13;;;0.80;;
1106;SDS011;540;49.448;8.612;2022-09-03T00:12:51;2.00;;;0.70;;
1106;SDS011;540;49.448;8.612;2022-09-03T00:15:23;1.65;;;0.75;;
1106;SDS011;540;49.448;8.612;2022-09-03T00:17:52;2.70;;;1.13;;
1106;SDS011;540;49.448;8.612;2022-09-03T00:20:24;1.85;;;0.90;;
1106;SDS011;540;49.448;8.612;2022-09-03T00:22:57;2.63;;;1.15;;
1106;SDS011;540;49.448;8.612;2022-09-03T00:25:35;1.65;;;0.98;;
1106;SDS011;540;49.448;8.612;2022-09-03T00:28:06;2.38;;;0.73;;
1106;SDS011;540;49.448;8.612;2022-09-03T00:30:39;2.55;;;0.80;;
1106;SDS011;540;49.448;8.612;2022-09-03T00:33:10;0.88;;;0.70;;
1106;SDS011;540;49.448;8.612;2022-09-03T00:35:45;1.33;;;0.90;;
1106;SDS011;540;49.448;8.612;2022-09-03T00:38:16;0.65;;;0.65;;
1106;SDS011;540;49.448;8.612;2022-09-03T00:40:48;1.52;;;0.80;;
1106;SDS011;540;49.448;8.612;2022-09-03T00:43:31;1.85;;;0.70;;
1106;SDS011;540;49.448;8.612;2022-09-03T00:46:10;1.13;;;0.75;;
1106;SDS011;540;49.448;8.612;2022-09-03T00:48:55;1.98;;;0.90;;
1106;SDS011;540;49.448;8.612;2022-09-03T00:51:38;1.52;;;0.85;;
1106;SDS011;540;49.448;8.612;2022-09-03T00:54:13;1.55;;;0.82;;
1106;SDS011;540;49.448;8.612;2022-09-03T00:56:50;1.42;;;0.88;;
1106;SDS011;540;49.448;8.612;2022-09-03T00:59:31;3.80;;;1.10;;
1106;SDS011;540;49.448;8.612;2022-09-03T01:02:10;2.88;;;1.00;;
1106;SDS011;540;49.448;8.612;2022-09-03T01:04:47;2.38;;;0.70;;
1106;SDS011;540;49.448;8.612;2022-09-03T01:07:25;1.95;;;0.90;;
1106;SDS011;540;49.448;8.612;2022-09-03T01:10:02;6.18;;;1.05;;
1106;SDS011;540;49.448;8.612;2022-09-03T01:12:41;4.47;;;1.00;;
1106;SDS011;540;49.448;8.612;2022-09-03T01:15:19;1.10;;;0.65;;
1106;SDS011;540;49.448;8.612;2022-09-03T01:17:56;1.05;;;0.77;;
1106;SDS011;540;49.448;8.612;2022-09-03T01:20:34;1.75;;;0.85;;
1106;SDS011;540;49.448;8.612;2022-09-03T01:26:22;3.70;;;0.70;;
1106;SDS011;540;49.448;8.612;2022-09-03T01:29:00;1.50;;;0.85;;
1106;SDS011;540;49.448;8.612;2022-09-03T01:31:37;1.08;;;0.73;;
1106;SDS011;540;49.448;8.612;2022-09-03T01:34:19;3.25;;;0.95;;
1106;SDS011;540;49.448;8.612;2022-09-03T01:37:00;3.67;;;0.63;;
1106;SDS011;540;49.448;8.612;2022-09-03T01:39:39;1.55;;;0.70;;
1106;SDS011;540;49.448;8.612;2022-09-03T01:42:19;2.15;;;0.95;;
1106;SDS011;540;49.448;8.612;2022-09-03T01:44:56;1.35;;;0.60;;
1106;SDS011;540;49.448;8.612;2022-09-03T01:47:41;3.28;;;0.73;;
1106;SDS011;540;49.448;8.612;2022-09-03T01:50:23;3.05;;;0.77;;
1106;SDS011;540;49.448;8.612;2022-09-03T01:53:02;1.73;;;0.82;;
1106;SDS011;540;49.448;8.612;2022-09-03T01:55:41;1.20;;;0.70;;
1106;SDS011;540;49.448;8.612;2022-09-03T01:58:17;4.78;;;0.98;;
1106;SDS011;540;49.448;8.612;2022-09-03T02:00:52;1.05;;;0.60;;
1106;SDS011;540;49.448;8.612;2022-09-03T02:03:24;0.95;;;0.82;;
1106;SDS011;540;49.448;8.612;2022-09-03T02:06:06;2.60;;;0.70;;
1106;SDS011;540;49.448;8.612;2022-09-03T02:08:35;0.77;;;0.60;;
1106;SDS011;540;49.448;8.612;2022-09-03T02:11:03;4.00;;;0.82;;
1106;SDS011;540;49.448;8.612;2022-09-03T02:13:35;1.55;;;0.63;;
1106;SDS011;540;49.448;8.612;2022-09-03T02:16:09;1.30;;;0.80;;
1106;SDS011;540;49.448;8.612;2022-09-03T02:18:40;1.83;;;0.80;;
1106;SDS011;540;49.448;8.612;2022-09-03T02:21:12;1.90;;;0.75;;
1106;SDS011;540;49.448;8.612;2022-09-03T02:23:42;1.65;;;0.60;;
1106;SDS011;540;49.448;8.612;2022-09-03T02:26:10;2.17;;;0.90;;
1106;SDS011;540;49.448;8.612;2022-09-03T02:28:43;1.65;;;0.73;;
1106;SDS011;540;49.448;8.612;2022-09-03T02:31:12;0.95;;;0.88;;
1106;SDS011;540;49.448;8.612;2022-09-03T02:33:41;1.48;;;0.80;;
1106;SDS011;540;49.448;8.612;2022-09-03T02:36:13;0.93;;;0.60;;
1106;SDS011;540;49.448;8.612;2022-09-03T02:38:43;0.98;;;0.70;;
1106;SDS011;540;49.448;8.612;2022-09-03T02:41:11;3.83;;;0.70;;
1106;SDS011;540;49.448;8.612;2022-09-03T02:43:41;3.60;;;0.98;;
1106;SDS011;540;49.448;8.612;2022-09-03T02:46:15;1.13;;;0.80;;
1106;SDS011;540;49.448;8.612;2022-09-03T02:48:47;1.60;;;0.85;;
1106;SDS011;540;49.448;8.612;2022-09-03T02:51:15;1.13;;;0.73;;
1106;SDS011;540;49.448;8.612;2022-09-03T02:53:43;1.85;;;0.80;;
1106;SDS011;540;49.448;8.612;2022-09-03T02:56:11;2.38;;;0.82;;
1106;SDS011;540;49.448;8.612;2022-09-03T02:58:39;0.60;;;0.60;;
1106;SDS011;540;49.448;8.612;2022-09-03T03:01:07;4.93;;;0.98;;
1106;SDS011;540;49.448;8.612;2022-09-03T03:03:36;1.58;;;0.68;;
1106;SDS011;540;49.448;8.612;2022-09-03T03:06:04;2.10;;;0.80;;
1106;SDS011;540;49.448;8.612;2022-09-03T03:08:33;5.82;;;0.80;;
1106;SDS011;540;49.448;8.612;2022-09-03T03:11:00;3.15;;;0.70;;
1106;SDS011;540;49.448;8.612;2022-09-03T03:13:29;2.20;;;0.90;;
1106;SDS011;540;49.448;8.612;2022-09-03T03:15:57;1.20;;;0.90;;
1106;SDS011;540;49.448;8.612;2022-09-03T03:18:27;1.40;;;0.80;;
1106;SDS011;540;49.448;8.612;2022-09-03T03:20:57;2.70;;;0.70;;
1106;SDS011;540;49.448;8.612;2022-09-03T03:23:30;3.45;;;1.25;;
1106;SDS011;540;49.448;8.612;2022-09-03T03:25:59;2.65;;;0.75;;
1106;SDS011;540;49.448;8.612;2022-09-03T03:28:27;2.33;;;0.80;;
1106;SDS011;540;49.448;8.612;2022-09-03T03:31:03;6.57;;;0.95;;
1106;SDS011;540;49.448;8.612;2022-09-03T03:33:32;1.15;;;0.88;;
1106;SDS011;540;49.448;8.612;2022-09-03T03:36:03;3.25;;;0.93;;
1106;SDS011;540;49.448;8.612;2022-09-03T03:38:33;2.92;;;0.90;;
1106;SDS011;540;49.448;8.612;2022-09-03T03:41:05;2.13;;;0.60;;
1106;SDS011;540;49.448;8.612;2022-09-03T03:43:34;1.83;;;1.65;;
1106;SDS011;540;49.448;8.612;2022-09-03T03:46:02;1.05;;;0.77;;
1106;SDS011;540;49.448;8.612;2022-09-03T03:48:30;1.20;;;0.80;;
1106;SDS011;540;49.448;8.612;2022-09-03T03:50:59;1.73;;;1.05;;
1106;SDS011;540;49.448;8.612;2022-09-03T03:53:29;2.92;;;0.85;;
1106;SDS011;540;49.448;8.612;2022-09-03T03:55:58;3.53;;;1.00;;
1106;SDS011;540;49.448;8.612;2022-09-03T03:58:27;1.20;;;0.80;;
1106;SDS011;540;49.448;8.612;2022-09-03T04:01:02;1.13;;;0.85;;
1106;SDS011;540;49.448;8.612;2022-09-03T04:03:31;4.13;;;1.00;;
1106;SDS011;540;49.448;8.612;2022-09-03T04:05:59;0.90;;;0.82;;
1106;SDS011;540;49.448;8.612;2022-09-03T04:08:27;2.50;;;1.00;;
1106;SDS011;540;49.448;8.612;2022-09-03T04:11:00;2.67;;;1.00;;
1106;SDS011;540;49.448;8.612;2022-09-03T04:13:29;0.85;;;0.73;;
1106;SDS011;540;49.448;8.612;2022-09-03T04:16:00;1.92;;;0.80;;
1106;SDS011;540;49.448;8.612;2022-09-03T04:18:29;4.22;;;1.08;;
1106;SDS011;540;49.448;8.612;2022-09-03T04:20:58;4.88;;;0.93;;
1106;SDS011;540;49.448;8.612;2022-09-03T04:23:32;1.70;;;1.10;;
1106;SDS011;540;49.448;8.612;2022-09-03T04:26:01;3.95;;;1.25;;
1106;SDS011;540;49.448;8.612;2022-09-03T04:28:30;2.58;;;1.70;;
1106;SDS011;540;49.448;8.612;2022-09-03T04:30:59;1.48;;;0.80;;
1106;SDS011;540;49.448;8.612;2022-09-03T04:33:28;1.55;;;1.10;;
1106;SDS011;540;49.448;8.612;2022-09-03T04:36:03;1.67;;;0.90;;
1106;SDS011;540;49.448;8.612;2022-09-03T04:38:34;3.75;;;0.80;;
1106;SDS011;540;49.448;8.612;2022-09-03T04:41:04;1.38;;;0.82;;
1106;SDS011;540;49.448;8.612;2022-09-03T04:43:32;1.65;;;0.90;;
1106;SDS011;540;49.448;8.612;2022-09-03T04:46:01;2.92;;;0.95;;
1106;SDS011;540;49.448;8.612;2022-09-03T04:48:31;2.45;;;0.73;;
1106;SDS011;540;49.448;8.612;2022-09-03T04:51:03;1.95;;;1.17;;
1106;SDS011;540;49.448;8.612;2022-09-03T04:53:34;2.78;;;0.90;;
1106;SDS011;540;49.448;8.612;2022-09-03T04:56:10;2.58;;;0.80;;
1106;SDS011;540;49.448;8.612;2022-09-03T05:01:10;7.25;;;1.30;;
1106;SDS011;540;49.448;8.612;2022-09-03T05:03:39;1.13;;;1.00;;
1106;SDS011;540;49.448;8.612;2022-09-03T05:06:07;7.13;;;1.40;;
1106;SDS011;540;49.448;8.612;2022-09-03T05:08:36;1.25;;;0.85;;
1106;SDS011;540;49.448;8.612;2022-09-03T05:11:05;2.85;;;1.13;;
1106;SDS011;540;49.448;8.612;2022-09-03T05:13:34;1.55;;;0.98;;
1106;SDS011;540;49.448;8.612;2022-09-03T05:16:03;1.95;;;1.25;;
1106;SDS011;540;49.448;8.612;2022-09-03T05:18:33;2.28;;;1.40;;
1106;SDS011;540;49.448;8.612;2022-09-03T05:21:02;2.63;;;1.10;;
1106;SDS011;540;49.448;8.612;2022-09-03T05:23:31;2.17;;;1.23;;
1106;SDS011;540;49.448;8.612;2022-09-03T05:26:05;1.67;;;1.13;;
1106;SDS011;540;49.448;8.612;2022-09-03T05:28:36;1.27;;;0.98;;
1106;SDS011;540;49.448;8.612;2022-09-03T05:31:06;3.40;;;1.30;;
1106;SDS011;540;49.448;8.612;2022-09-03T05:33:36;1.80;;;0.90;;
1106;SDS011;540;49.448;8.612;2022-09-03T05:36:05;4.68;;;1.55;;
1106;SDS011;540;49.448;8.612;2022-09-03T05:38:35;2.08;;;1.48;;
1106;SDS011;540;49.448;8.612;2022-09-03T05:41:06;2.63;;;1.02;;
1106;SDS011;540;49.448;8.612;2022-09-03T05:43:35;2.08;;;1.30;;
1106;SDS011;540;49.448;8.612;2022-09-03T05:46:04;2.47;;;1.20;;
1106;SDS011;540;49.448;8.612;2022-09-03T05:48:34;3.20;;;1.27;;
1106;SDS011;540;49.448;8.612;2022-09-03T05:51:03;1.60;;;1.20;;
1106;SDS011;540;49.448;8.612;2022-09-03T05:53:34;3.03;;;1.25;;
1106;SDS011;540;49.448;8.612;2022-09-03T05:56:06;1.02;;;0.90;;
1106;SDS011;540;49.448;8.612;2022-09-03T05:58:36;3.08;;;1.42;;
1106;SDS011;540;49.448;8.612;2022-09-03T06:01:09;2.53;;;1.42;;
1106;SDS011;540;49.448;8.612;2022-09-03T06:03:39;2.47;;;1.35;;
1106;SDS011;540;49.448;8.612;2022-09-03T06:06:08;5.60;;;2.60;;
1106;SDS011;540;49.448;8.612;2022-09-03T06:08:36;1.77;;;1.13;;
1106;SDS011;540;49.448;8.612;2022-09-03T06:11:05;4.28;;;1.15;;
1106;SDS011;540;49.448;8.612;2022-09-03T06:13:34;4.22;;;1.63;;
1106;SDS011;540;49.448;8.612;2022-09-03T06:16:04;3.30;;;1.80;;
1106;SDS011;540;49.448;8.612;2022-09-03T06:18:33;2.85;;;1.45;;
1106;SDS011;540;49.448;8.612;2022-09-03T06:21:03;1.55;;;1.08;;
1106;SDS011;540;49.448;8.612;2022-09-03T06:23:32;2.75;;;1.30;;
1106;SDS011;540;49.448;8.612;2022-09-03T06:26:02;5.28;;;1.38;;
1106;SDS011;540;49.448;8.612;2022-09-03T06:28:33;2.03;;;1.33;;
1106;SDS011;540;49.448;8.612;2022-09-03T06:31:03;3.22;;;1.40;;
1106;SDS011;540;49.448;8.612;2022-09-03T06:33:33;2.72;;;1.45;;
1106;SDS011;540;49.448;8.612;2022-09-03T06:36:03;3.17;;;1.70;;
1106;SDS011;540;49.448;8.612;2022-09-03T06:38:35;7.18;;;1.70;;
1106;SDS011;540;49.448;8.612;2022-09-03T06:41:04;4.15;;;1.65;;
1106;SDS011;540;49.448;8.612;2022-09-03T06:43:35;3.78;;;1.80;;
1106;SDS011;540;49.448;8.612;2022-09-03T06:46:05;1.95;;;1.67;;
1106;SDS011;540;49.448;8.612;2022-09-03T06:48:34;2.40;;;2.05;;
1106;SDS011;540;49.448;8.612;2022-09-03T06:51:03;7.38;;;2.30;;
1106;SDS011;540;49.448;8.612;2022-09-03T06:53:33;3.65;;;1.95;;
1106;SDS011;540;49.448;8.612;2022-09-03T06:56:03;4.85;;;2.33;;
1106;SDS011;540;49.448;8.612;2022-09-03T06:58:33;4.03;;;2.25;;
1106;SDS011;540;49.448;8.612;2022-09-03T07:01:04;2.38;;;2.00;;
1106;SDS011;540;49.448;8.612;2022-09-03T07:03:33;3.25;;;1.75;;
1106;SDS011;540;49.448;8.612;2022-09-03T07:06:02;5.90;;;2.03;;
1106;SDS011;540;49.448;8.612;2022-09-03T07:08:30;2.63;;;2.20;;
1106;SDS011;540;49.448;8.612;2022-09-03T07:10:59;3.35;;;2.33;;
1106;SDS011;540;49.448;8.612;2022-09-03T07:13:29;2.75;;;2.38;;
1106;SDS011;540;49.448;8.612;2022-09-03T07:15:58;5.38;;;2.20;;
1106;SDS011;540;49.448;8.612;2022-09-03T07:18:27;2.63;;;2.30;;
1106;SDS011;540;49.448;8.612;2022-09-03T07:20:58;4.85;;;2.17;;
1106;SDS011;540;49.448;8.612;2022-09-03T07:23:28;6.13;;;2.83;;
1106;SDS011;540;49.448;8.612;2022-09-03T07:25:57;3.40;;;2.58;;
1106;SDS011;540;49.448;8.612;2022-09-03T07:28:27;5.07;;;2.80;;
1106;SDS011;540;49.448;8.612;2022-09-03T07:31:01;5.25;;;2.72;;
1106;SDS011;540;49.448;8.612;2022-09-03T07:33:30;4.82;;;3.45;;
1106;SDS011;540;49.448;8.612;2022-09-03T07:36:02;6.05;;;3.03;;
1106;SDS011;540;49.448;8.612;2022-09-03T07:38:31;5.53;;;2.88;;
1106;SDS011;540;49.448;8.612;2022-09-03T07:40:59;7.72;;;3.65;;
1106;SDS011;540;49.448;8.612;2022-09-03T07:43:32;6.00;;;2.95;;
1106;SDS011;540;49.448;8.612;2022-09-03T07:46:02;6.57;;;2.97;;
1106;SDS011;540;49.448;8.612;2022-09-03T07:48:32;4.10;;;2.53;;
1106;SDS011;540;49.448;8.612;2022-09-03T07:51:02;6.90;;;3.20;;
1106;SDS011;540;49.448;8.612;2022-09-03T07:53:30;4.97;;;2.70;;
1106;SDS011;540;49.448;8.612;2022-09-03T07:56:02;9.82;;;2.80;;
1106;SDS011;540;49.448;8.612;2022-09-03T07:58:31;5.35;;;3.15;;
1106;SDS011;540;49.448;8.612;2022-09-03T08:01:04;5.57;;;3.38;;
1106;SDS011;540;49.448;8.612;2022-09-03T08:06:06;6.45;;;3.50;;
1106;SDS011;540;49.448;8.612;2022-09-03T08:08:34;5.13;;;3.10;;
1106;SDS011;540;49.448;8.612;2022-09-03T08:11:03;6.95;;;3.08;;
1106;SDS011;540;49.448;8.612;2022-09-03T08:13:36;6.25;;;3.70;;
1106;SDS011;540;49.448;8.612;2022-09-03T08:16:07;6.30;;;3.50;;
1106;SDS011;540;49.448;8.612;2022-09-03T08:18:36;6.65;;;3.83;;
1106;SDS011;540;49.448;8.612;2022-09-03T08:21:05;5.95;;;3.50;;
1106;SDS011;540;49.448;8.612;2022-09-03T08:23:37;8.32;;;4.00;;
1106;SDS011;540;49.448;8.612;2022-09-03T08:26:06;7.25;;;4.53;;
1106;SDS011;540;49.448;8.612;2022-09-03T08:28:34;6.20;;;3.90;;
1106;SDS011;540;49.448;8.612;2022-09-03T08:31:07;5.47;;;3.45;;
1106;SDS011;540;49.448;8.612;2022-09-03T08:33:37;6.50;;;3.85;;
1106;SDS011;540;49.448;8.612;2022-09-03T08:36:06;6.13;;;4.30;;
1106;SDS011;540;49.448;8.612;2022-09-03T08:38:38;5.07;;;3.92;;
1106;SDS011;540;49.448;8.612;2022-09-03T08:41:09;4.22;;;3.70;;
1106;SDS011;540;49.448;8.612;2022-09-03T08:43:52;6.03;;;4.25;;
1106;SDS011;540;49.448;8.612;2022-09-03T08:46:35;6.50;;;4.32;;
1106;SDS011;540;49.448;8.612;2022-09-03T08:49:10;5.07;;;3.45;;
1106;SDS011;540;49.448;8.612;2022-09-03T08:51:40;6.68;;;4.15;;
1106;SDS011;540;49.448;8.612;2022-09-03T08:54:10;7.22;;;3.92;;
1106;SDS011;540;49.448;8.612;2022-09-03T08:56:40;6.85;;;3.50;;
1106;SDS011;540;49.448;8.612;2022-09-03T08:59:09;7.15;;;3.55;;
1106;SDS011;540;49.448;8.612;2022-09-03T09:01:42;7.05;;;3.33;;
1106;SDS011;540;49.448;8.612;2022-09-03T09:04:23;8.30;;;3.83;;
1106;SDS011;540;49.448;8.612;2022-09-03T09:07:03;6.32;;;3.75;;
1106;SDS011;540;49.448;8.612;2022-09-03T09:09:40;5.25;;;3.67;;
1106;SDS011;540;49.448;8.612;2022-09-03T09:12:19;6.75;;;4.07;;
1106;SDS011;540;49.448;8.612;2022-09-03T09:15:07;7.18;;;5.28;;
1106;SDS011;540;49.448;8.612;2022-09-03T09:17:44;9.05;;;5.38;;
1106;SDS011;540;49.448;8.612;2022-09-03T09:20:24;9.32;;;5.05;;
1106;SDS011;540;49.448;8.612;2022-09-03T09:22:59;7.75;;;5.07;;
1106;SDS011;540;49.448;8.612;2022-09-03T09:25:31;7.93;;;4.53;;
1106;SDS011;540;49.448;8.612;2022-09-03T09:28:07;6.45;;;4.97;;
1106;SDS011;540;49.448;8.612;2022-09-03T09:30:42;5.97;;;3.63;;
1106;SDS011;540;49.448;8.612;2022-09-03T09:33:14;6.82;;;3.20;;
1106;SDS011;540;49.448;8.612;2022-09-03T09:35:43;7.20;;;3.72;;
1106;SDS011;540;49.448;8.612;2022-09-03T09:38:12;4.80;;;3.47;;
1106;SDS011;540;49.448;8.612;2022-09-03T09:40:42;4.75;;;2.95;;
1106;SDS011;540;49.448;8.612;2022-09-03T09:43:12;4.32;;;2.35;;
1106;SDS011;540;49.448;8.612;2022-09-03T09:45:42;4.65;;;3.00;;
1106;SDS011;540;49.448;8.612;2022-09-03T09:48:14;4.05;;;2.97;;
1106;SDS011;540;49.448;8.612;2022-09-03T09:51:01;3.47;;;2.55;;
1106;SDS011;540;49.448;8.612;2022-09-03T09:53:30;4.50;;;2.97;;
1106;SDS011;540;49.448;8.612;2022-09-03T09:56:00;3.97;;;2.67;;
1106;SDS011;540;49.448;8.612;2022-09-03T09:58:29;7.10;;;2.47;;
1106;SDS011;540;49.448;8.612;2022-09-03T10:01:02;7.60;;;2.95;;
1106;SDS011;540;49.448;8.612;2022-09-03T10:03:46;4.88;;;2.70;;
1106;SDS011;540;49.448;8.612;2022-09-03T10:06:17;3.92;;;2.50;;
1106;SDS011;540;49.448;8.612;2022-09-03T10:09:06;3.38;;;2.13;;
1106;SDS011;540;49.448;8.612;2022-09-03T10:11:36;2.47;;;1.70;;
1106;SDS011;540;49.448;8.612;2022-09-03T10:14:08;4.90;;;2.63;;
1106;SDS011;540;49.448;8.612;2022-09-03T10:16:45;3.25;;;2.53;;
1106;SDS011;540;49.448;8.612;2022-09-03T10:19:18;5.40;;;2.80;;
1106;SDS011;540;49.448;8.612;2022-09-03T10:21:52;3.92;;;2.42;;
1106;SDS011;540;49.448;8.612;2022-09-03T10:27:05;2.92;;;2.30;;
1106;SDS011;540;49.448;8.612;2022-09-03T10:29:37;2.65;;;2.30;;
1106;SDS011;540;49.448;8.612;2022-09-03T10:32:10;2.80;;;1.95;;
1106;SDS011;540;49.448;8.612;2022-09-03T10:35:10;2.85;;;2.20;;
1106;SDS011;540;49.448;8.612;2022-09-03T10:37:48;6.53;;;2.22;;
1106;SDS011;540;49.448;8.612;2022-09-03T10:40:24;2.10;;;1.90;;
1106;SDS011;540;49.448;8.612;2022-09-03T10:43:11;2.88;;;1.80;;
1106;SDS011;540;49.448;8.612;2022-09-03T10:45:52;2.35;;;1.90;;
1106;SDS011;540;49.448;8.612;2022-09-03T10:48:34;3.17;;;1.70;;
1106;SDS011;540;49.448;8.612;2022-09-03T10:51:19;3.40;;;1.98;;
1106;SDS011;540;49.448;8.612;2022-09-03T10:54:04;2.90;;;2.50;;
1106;SDS011;540;49.448;8.612;2022-09-03T10:56:44;2.00;;;1.80;;
1106;SDS011;540;49.448;8.612;2022-09-03T10:59:25;2.35;;;1.75;;
1106;SDS011;540;49.448;8.612;2022-09-03T11:02:04;3.97;;;1.83;;
1106;SDS011;540;49.448;8.612;2022-09-03T11:04:50;2.35;;;2.00;;
1106;SDS011;540;49.448;8.612;2022-09-03T11:07:24;3.63;;;2.30;;
1106;SDS011;540;49.448;8.612;2022-09-03T11:10:00;1.80;;;1.63;;
1106;SDS011;540;49.448;8.612;2022-09-03T11:12:39;3.08;;;1.90;;
1106;SDS011;540;49.448;8.612;2022-09-03T11:15:12;2.97;;;1.70;;
1106;SDS011;540;49.448;8.612;2022-09-03T11:17:53;1.98;;;1.67;;
1106;SDS011;540;49.448;8.612;2022-09-03T11:20:26;3.67;;;1.60;;
1106;SDS011;540;49.448;8.612;2022-09-03T11:22:56;2.30;;;1.92;;
1106;SDS011;540;49.448;8.612;2022-09-03T11:25:29;2.42;;;2.05;;
1106;SDS011;540;49.448;8.612;2022-09-03T11:28:02;3.00;;;2.10;;
1106;SDS011;540;49.448;8.612;2022-09-03T11:30:44;4.70;;;2.42;;
1106;SDS011;540;49.448;8.612;2022-09-03T11:33:20;2.47;;;2.15;;
1106;SDS011;540;49.448;8.612;2022-09-03T11:35:54;1.90;;;1.50;;
1106;SDS011;540;49.448;8.612;2022-09-03T11:38:27;4.32;;;1.88;;
1106;SDS011;540;49.448;8.612;2022-09-03T11:40:58;3.25;;;1.98;;
1106;SDS011;540;49.448;8.612;2022-09-03T11:43:29;2.35;;;1.67;;
1106;SDS011;540;49.448;8.612;2022-09-03T11:46:02;2.25;;;1.58;;
1106;SDS011;540;49.448;8.612;2022-09-03T11:48:37;1.95;;;1.48;;
1106;SDS011;540;49.448;8.612;2022-09-03T11:51:18;1.38;;;1.27;;
1106;SDS011;540;49.448;8.612;2022-09-03T11:53:57;3.20;;;1.30;;
1106;SDS011;540;49.448;8.612;2022-09-03T11:56:27;1.25;;;1.13;;
1106;SDS011;540;49.448;8.612;2022-09-03T11:59:03;1.30;;;1.20;;
1106;SDS011;540;49.448;8.612;2022-09-03T12:01:44;3.28;;;1.55;;
1106;SDS011;540;49.448;8.612;2022-09-03T12:04:18;1.88;;;1.60;;
1106;SDS011;540;49.448;8.612;2022-09-03T12:06:56;1.17;;;1.10;;
1106;SDS011;540;49.448;8.612;2022-09-03T12:09:48;2.20;;;1.20;;
1106;SDS011;540;49.448;8.612;2022-09-03T12:12:44;2.10;;;1.05;;
1106;SDS011;540;49.448;8.612;2022-09-03T12:15:34;1.40;;;1.17;;
1106;SDS011;540;49.448;8.612;2022-09-03T12:18:16;3.17;;;1.70;;
1106;SDS011;540;49.448;8.612;2022-09-03T12:20:59;2.28;;;1.70;;
1106;SDS011;540;49.448;8.612;2022-09-03T12:23:28;1.65;;;1.30;;
1106;SDS011;540;49.448;8.612;2022-09-03T12:26:01;1.40;;;1.23;;
1106;SDS011;540;49.448;8.612;2022-09-03T12:28:34;1.20;;;1.10;;
1106;SDS011;540;49.448;8.612;2022-09-03T12:31:09;1.75;;;1.20;;
1106;SDS011;540;49.448;8.612;2022-09-03T12:33:51;1.92;;;1.50;;
1106;SDS011;540;49.448;8.612;2022-09-03T12:36:20;1.27;;;1.13;;
1106;SDS011;540;49.448;8.612;2022-09-03T12:38:49;1.20;;;1.10;;
1106;SDS011;540;49.448;8.612;2022-09-03T12:41:38;0.90;;;0.90;;
1106;SDS011;540;49.448;8.612;2022-09-03T12:44:23;1.65;;;1.20;;
1106;SDS011;540;49.448;8.612;2022-09-03T12:46:59;1.05;;;0.95;;
1106;SDS011;540;49.448;8.612;2022-09-03T12:49:47;1.42;;;1.33;;
1106;SDS011;540;49.448;8.612;2022-09-03T12:52:18;1.95;;;1.67;;
1106;SDS011;540;49.448;8.612;2022-09-03T12:54:52;1.77;;;1.52;;
1106;SDS011;540;49.448;8.612;2022-09-03T12:57:25;2.00;;;1.80;;
1106;SDS011;540;49.448;8.612;2022-09-03T12:59:59;1.73;;;1.63;;
1106;SDS011;540;49.448;8.612;2022-09-03T13:02:34;1.83;;;1.17;;
1106;SDS011;540;49.448;8.612;2022-09-03T13:05:07;1.70;;;1.60;;
1106;SDS011;540;49.448;8.612;2022-09-03T13:07:43;1.70;;;1.60;;
1106;SDS011;540;49.448;8.612;2022-09-03T13:10:21;1.50;;;1.40;;
1106;SDS011;540;49.448;8.612;2022-09-03T13:12:56;3.08;;;1.67;;
1106;SDS011;540;49.448;8.612;2022-09-03T13:15:26;2.30;;;1.55;;
1106;SDS011;540;49.448;8.612;2022-09-03T13:17:57;3.13;;;2.00;;
1106;SDS011;540;49.448;8.612;2022-09-03T13:20:36;1.58;;;1.48;;
1106;SDS011;540;49.448;8.612;2022-09-03T13:23:20;2.38;;;1.80;;
1106;SDS011;540;49.448;8.612;2022-09-03T13:26:06;1.70;;;1.58;;
1106;SDS011;540;49.448;8.612;2022-09-03T13:28:48;2.35;;;2.03;;
1106;SDS011;540;49.448;8.612;2022-09-03T13:31:40;2.38;;;1.73;;
1106;SDS011;540;49.448;8.612;2022-09-03T13:34:15;2.50;;;1.92;;
1106;SDS011;540;49.448;8.612;2022-09-03T13:36:47;2.03;;;1.83;;
1106;SDS011;540;49.448;8.612;2022-09-03T13:39:20;2.20;;;1.77;;
1106;SDS011;540;49.448;8.612;2022-09-03T13:41:54;2.42;;;2.22;;
1106;SDS011;540;49.448;8.612;2022-09-03T13:44:35;2.10;;;1.90;;
1106;SDS011;540;49.448;8.612;2022-09-03T13:47:10;4.22;;;2.55;;
1106;SDS011;540;49.448;8.612;2022-09-03T13:49:46;4.00;;;2.28;;
1106;SDS011;540;49.448;8.612;2022-09-03T13:52:37;3.10;;;2.58;;
1106;SDS011;540;49.448;8.612;2022-09-03T13:55:10;4.13;;;2.35;;
1106;SDS011;540;49.448;8.612;2022-09-03T13:57:48;2.95;;;2.65;;
1106;SDS011;540;49.448;8.612;2022-09-03T14:00:29;3.85;;;2.83;;
1106;SDS011;540;49.448;8.612;2022-09-03T14:03:05;5.65;;;2.75;;
1106;SDS011;540;49.448;8.612;2022-09-03T14:05:46;2.90;;;2.65;;
1106;SDS011;540;49.448;8.612;2022-09-03T14:08:21;4.22;;;3.50;;
1106;SDS011;540;49.448;8.612;2022-09-03T14:10:56;3.65;;;2.97;;
1106;SDS011;540;49.448;8.612;2022-09-03T14:13:36;4.55;;;3.17;;
1106;SDS011;540;49.448;8.612;2022-09-03T14:16:15;6.68;;;2.95;;
1106;SDS011;540;49.448;8.612;2022-09-03T14:18:53;3.40;;;2.88;;
1106;SDS011;540;49.448;8.612;2022-09-03T14:21:26;3.10;;;2.53;;
1106;SDS011;540;49.448;8.612;2022-09-03T14:24:00;4.93;;;3.10;;
1106;SDS011;540;49.448;8.612;2022-09-03T14:26:33;3.92;;;2.90;;
1106;SDS011;540;49.448;8.612;2022-09-03T14:29:06;3.35;;;3.05;;
1106;SDS011;540;49.448;8.612;2022-09-03T14:31:49;3.10;;;2.80;;
1106;SDS011;540;49.448;8.612;2022-09-03T14:34:34;3.83;;;3.25;;
1106;SDS011;540;49.448;8.612;2022-09-03T14:37:14;3.47;;;3.15;;
1106;SDS011;540;49.448;8.612;2022-09-03T14:39:58;3.43;;;3.00;;
1106;SDS011;540;49.448;8.612;2022-09-03T14:42:52;5.13;;;3.63;;
1106;SDS011;540;49.448;8.612;2022-09-03T14:48:29;3.72;;;3.22;;
1106;SDS011;540;49.448;8.612;2022-09-03T14:51:21;4.95;;;3.47;;
1106;SDS011;540;49.448;8.612;2022-09-03T14:54:04;6.95;;;4.32;;
1106;SDS011;540;49.448;8.612;2022-09-03T14:56:59;4.93;;;3.67;;
1106;SDS011;540;49.448;8.612;2022-09-03T15:02:51;3.35;;;3.05;;
1106;SDS011;540;49.448;8.612;2022-09-03T15:09:07;3.80;;;3.38;;
1106;SDS011;540;49.448;8.612;2022-09-03T15:11:46;5.10;;;3.40;;
1106;SDS011;540;49.448;8.612;2022-09-03T15:14:17;3.38;;;3.08;;
1106;SDS011;540;49.448;8.612;2022-09-03T15:16:52;6.45;;;3.30;;
1106;SDS011;540;49.448;8.612;2022-09-03T15:19:35;3.75;;;3.30;;
1106;SDS011;540;49.448;8.612;2022-09-03T15:22:17;4.55;;;3.20;;
1106;SDS011;540;49.448;8.612;2022-09-03T15:25:02;12.40;;;7.32;;
1106;SDS011;540;49.448;8.612;2022-09-03T15:27:45;22.67;;;15.23;;
1106;SDS011;540;49.448;8.612;2022-09-03T15:30:23;21.27;;;12.52;;
1106;SDS011;540;49.448;8.612;2022-09-03T15:33:05;19.00;;;10.32;;
1106;SDS011;540;49.448;8.612;2022-09-03T15:35:44;7.00;;;4.97;;
1106;SDS011;540;49.448;8.612;2022-09-03T15:38:27;7.65;;;6.28;;
1106;SDS011;540;49.448;8.612;2022-09-03T15:41:10;7.30;;;5.25;;
1106;SDS011;540;49.448;8.612;2022-09-03T15:43:49;6.05;;;4.55;;
1106;SDS011;540;49.448;8.612;2022-09-03T15:46:33;4.55;;;3.97;;
1106;SDS011;540;49.448;8.612;2022-09-03T15:49:07;12.90;;;9.45;;
1106;SDS011;540;49.448;8.612;2022-09-03T15:51:54;9.85;;;7.07;;
1106;SDS011;540;49.448;8.612;2022-09-03T15:54:30;13.50;;;9.73;;
1106;SDS011;540;49.448;8.612;2022-09-03T15:57:11;7.30;;;6.00;;
1106;SDS011;540;49.448;8.612;2022-09-03T15:59:46;5.45;;;4.88;;
1106;SDS011;540;49.448;8.612;2022-09-03T16:02:22;6.18;;;4.75;;
1106;SDS011;540;49.448;8.612;2022-09-03T16:05:00;5.15;;;4.50;;
1106;SDS011;540;49.448;8.612;2022-09-03T16:07:39;8.05;;;4.78;;
1106;SDS011;540;49.448;8.612;2022-09-03T16:10:31;3.78;;;3.47;;
1106;SDS011;540;49.448;8.612;2022-09-03T16:13:08;6.85;;;4.18;;
1106;SDS011;540;49.448;8.612;2022-09-03T16:18:27;5.07;;;4.30;;
1106;SDS011;540;49.448;8.612;2022-09-03T16:21:01;3.65;;;3.35;;
1106;SDS011;540;49.448;8.612;2022-09-03T16:23:36;6.68;;;3.53;;
1106;SDS011;540;49.448;8.612;2022-09-03T16:26:08;3.55;;;3.10;;
1106;SDS011;540;49.448;8.612;2022-09-03T16:28:44;3.72;;;3.42;;
1106;SDS011;540;49.448;8.612;2022-09-03T16:31:17;4.82;;;2.53;;
1106;SDS011;540;49.448;8.612;2022-09-03T16:33:57;4.25;;;3.28;;
1106;SDS011;540;49.448;8.612;2022-09-03T16:36:35;3.17;;;2.10;;